sensor_id;sensor_type;location;lat;lon;timestamp;pressure;altitude;pressure_sealevel;temperature;humidity
9525;BME280;15940;48.734;9.112;2023-03-25T00:01:30;95999.72;;;7.30;90.28
9525;BME280;15940;48.734;9.112;2023-03-25T00:03:58;95975.16;;;7.23;89.77
9525;BME280;15940;48.734;9.112;2023-03-25T00:06:26;95966.78;;;7.15;89.52
9525;BME280;15940;48.734;9.112;2023-03-25T00:08:54;95979.19;;;7.07;89.12
9525;BME280;15940;48.734;9.112;2023-03-25T00:11:22;95966.38;;;6.96;88.35
9525;BME280;15940;48.734;9.112;2023-03-25T00:13:49;95969.31;;;6.98;89.79
9525;BME280;15940;48.734;9.112;2023-03-25T00:16:16;95966.88;;;7.00;90.68
9525;BME280;15940;48.734;9.112;2023-03-25T00:18:44;95962.72;;;6.99;89.65
9525;BME280;15940;48.734;9.112;2023-03-25T00:21:13;95970.22;;;6.90;88.38
9525;BME280;15940;48.734;9.112;2023-03-25T00:23:41;95962.13;;;6.90;89.01
9525;BME280;15940;48.734;9.112;2023-03-25T00:26:09;95960.00;;;6.94;90.70
9525;BME280;15940;48.734;9.112;2023-03-25T00:28:37;95963.59;;;6.85;88.69
9525;BME280;15940;48.734;9.112;2023-03-25T00:31:06;95973.22;;;6.71;88.67
9525;BME280;15940;48.734;9.112;2023-03-25T00:33:34;95962.00;;;6.73;89.08
9525;BME280;15940;48.734;9.112;2023-03-25T00:36:01;95967.81;;;6.66;88.77
9525;BME280;15940;48.734;9.112;2023-03-25T00:38:32;95977.44;;;6.52;88.46
9525;BME280;15940;48.734;9.112;2023-03-25T00:41:16;95970.53;;;6.45;88.33
9525;BME280;15940;48.734;9.112;2023-03-25T00:43:47;95965.75;;;6.55;89.90
9525;BME280;15940;48.734;9.112;2023-03-25T00:46:15;95956.22;;;6.59;90.10
9525;BME280;15940;48.734;9.112;2023-03-25T00:48:41;95949.75;;;6.46;87.76
9525;BME280;15940;48.734;9.112;2023-03-25T00:51:08;95937.50;;;6.45;87.56
9525;BME280;15940;48.734;9.112;2023-03-25T00:53:38;95938.25;;;6.45;87.22
9525;BME280;15940;48.734;9.112;2023-03-25T00:56:06;95943.41;;;6.49;86.56
9525;BME280;15940;48.734;9.112;2023-03-25T00:58:34;95939.03;;;6.51;85.38
9525;BME280;15940;48.734;9.112;2023-03-25T01:01:08;95933.22;;;6.58;84.97
9525;BME280;15940;48.734;9.112;2023-03-25T01:03:37;95925.84;;;6.53;84.29
9525;BME280;15940;48.734;9.112;2023-03-25T01:06:09;95934.94;;;6.56;85.42
9525;BME280;15940;48.734;9.112;2023-03-25T01:08:36;95932.25;;;6.56;86.41
9525;BME280;15940;48.734;9.112;2023-03-25T01:11:04;95936.56;;;6.48;85.65
9525;BME280;15940;48.734;9.112;2023-03-25T01:13:31;95937.22;;;6.43;86.19
9525;BME280;15940;48.734;9.112;2023-03-25T01:15:59;95943.28;;;6.38;86.34
9525;BME280;15940;48.734;9.112;2023-03-25T01:18:26;95946.97;;;6.40;85.85
9525;BME280;15940;48.734;9.112;2023-03-25T01:20:53;95940.88;;;6.40;86.88
9525;BME280;15940;48.734;9.112;2023-03-25T01:23:20;95939.88;;;6.37;86.89
9525;BME280;15940;48.734;9.112;2023-03-25T01:25:47;95934.63;;;6.28;86.11
9525;BME280;15940;48.734;9.112;2023-03-25T01:28:14;95935.16;;;6.32;87.25
9525;BME280;15940;48.734;9.112;2023-03-25T01:30:41;95922.44;;;6.33;86.24
9525;BME280;15940;48.734;9.112;2023-03-25T01:33:09;95907.13;;;6.39;85.92
9525;BME280;15940;48.734;9.112;2023-03-25T01:35:36;95919.56;;;6.36;85.27
9525;BME280;15940;48.734;9.112;2023-03-25T01:38:03;95925.25;;;6.44;86.25
9525;BME280;15940;48.734;9.112;2023-03-25T01:40:30;95921.66;;;6.52;83.99
9525;BME280;15940;48.734;9.112;2023-03-25T01:42:57;95915.34;;;6.55;83.74
9525;BME280;15940;48.734;9.112;2023-03-25T01:45:27;95908.28;;;6.58;84.95
9525;BME280;15940;48.734;9.112;2023-03-25T01:48:03;95912.44;;;6.59;84.56
9525;BME280;15940;48.734;9.112;2023-03-25T01:50:33;95905.09;;;6.59;84.51
9525;BME280;15940;48.734;9.112;2023-03-25T01:53:04;95897.59;;;6.64;84.44
9525;BME280;15940;48.734;9.112;2023-03-25T01:55:33;95904.38;;;6.59;84.04
9525;BME280;15940;48.734;9.112;2023-03-25T01:58:06;95901.34;;;6.51;82.50
9525;BME280;15940;48.734;9.112;2023-03-25T02:00:37;95900.16;;;6.52;83.93
9525;BME280;15940;48.734;9.112;2023-03-25T02:03:05;95910.38;;;6.48;83.65
9525;BME280;15940;48.734;9.112;2023-03-25T02:05:41;95902.81;;;6.47;84.07
9525;BME280;15940;48.734;9.112;2023-03-25T02:08:11;95896.47;;;6.50;84.29
9525;BME280;15940;48.734;9.112;2023-03-25T02:10:43;95889.75;;;6.40;84.56
9525;BME280;15940;48.734;9.112;2023-03-25T02:13:10;95890.75;;;6.42;86.56
9525;BME280;15940;48.734;9.112;2023-03-25T02:16:06;95903.69;;;6.38;85.25
9525;BME280;15940;48.734;9.112;2023-03-25T02:18:45;95905.91;;;6.40;86.03
9525;BME280;15940;48.734;9.112;2023-03-25T02:21:45;95899.78;;;6.39;86.78
9525;BME280;15940;48.734;9.112;2023-03-25T02:24:43;95917.19;;;6.44;86.60
9525;BME280;15940;48.734;9.112;2023-03-25T02:27:23;95917.19;;;6.44;86.30
9525;BME280;15940;48.734;9.112;2023-03-25T02:33:40;95918.72;;;6.50;86.19
9525;BME280;15940;48.734;9.112;2023-03-25T02:36:54;95933.22;;;6.58;86.50
9525;BME280;15940;48.734;9.112;2023-03-25T02:39:31;95932.56;;;6.64;87.52
9525;BME280;15940;48.734;9.112;2023-03-25T02:42:06;95948.16;;;6.59;87.95
9525;BME280;15940;48.734;9.112;2023-03-25T02:44:40;95933.72;;;6.57;87.56
9525;BME280;15940;48.734;9.112;2023-03-25T02:47:16;95944.94;;;6.55;86.70
9525;BME280;15940;48.734;9.112;2023-03-25T02:49:47;95948.84;;;6.54;86.82
9525;BME280;15940;48.734;9.112;2023-03-25T02:52:19;95953.28;;;6.57;87.86
9525;BME280;15940;48.734;9.112;2023-03-25T02:54:53;95935.84;;;6.53;86.75
9525;BME280;15940;48.734;9.112;2023-03-25T02:57:24;95925.09;;;6.53;86.17
9525;BME280;15940;48.734;9.112;2023-03-25T02:59:54;95913.19;;;6.59;86.21
9525;BME280;15940;48.734;9.112;2023-03-25T03:02:25;95921.47;;;6.56;86.41
9525;BME280;15940;48.734;9.112;2023-03-25T03:04:55;95909.41;;;6.46;85.20
9525;BME280;15940;48.734;9.112;2023-03-25T03:07:26;95917.00;;;6.47;85.55
9525;BME280;15940;48.734;9.112;2023-03-25T03:10:04;95915.44;;;6.41;85.10
9525;BME280;15940;48.734;9.112;2023-03-25T03:12:57;95922.50;;;6.38;84.15
9525;BME280;15940;48.734;9.112;2023-03-25T03:15:38;95903.88;;;6.35;85.00
9525;BME280;15940;48.734;9.112;2023-03-25T03:18:17;95907.25;;;6.29;84.08
9525;BME280;15940;48.734;9.112;2023-03-25T03:20:56;95918.25;;;6.26;82.60
9525;BME280;15940;48.734;9.112;2023-03-25T03:23:28;95923.81;;;6.22;83.22
9525;BME280;15940;48.734;9.112;2023-03-25T03:26:04;95925.22;;;6.18;82.88
9525;BME280;15940;48.734;9.112;2023-03-25T03:28:41;95930.00;;;6.08;83.21
9525;BME280;15940;48.734;9.112;2023-03-25T03:31:14;95936.00;;;5.97;82.22
9525;BME280;15940;48.734;9.112;2023-03-25T03:33:49;95945.06;;;6.00;82.17
9525;BME280;15940;48.734;9.112;2023-03-25T03:36:23;95941.66;;;5.85;82.29
9525;BME280;15940;48.734;9.112;2023-03-25T03:38:57;95951.56;;;5.93;85.66
9525;BME280;15940;48.734;9.112;2023-03-25T03:41:27;95954.59;;;6.01;84.94
9525;BME280;15940;48.734;9.112;2023-03-25T03:43:57;95955.47;;;5.78;81.45
9525;BME280;15940;48.734;9.112;2023-03-25T03:46:32;95959.72;;;5.84;82.88
9525;BME280;15940;48.734;9.112;2023-03-25T03:49:02;95960.69;;;5.81;82.64
9525;BME280;15940;48.734;9.112;2023-03-25T03:51:34;95958.75;;;5.67;81.88
9525;BME280;15940;48.734;9.112;2023-03-25T03:54:05;95967.97;;;5.60;84.59
9525;BME280;15940;48.734;9.112;2023-03-25T03:56:38;95955.56;;;5.48;83.65
9525;BME280;15940;48.734;9.112;2023-03-25T03:59:13;95959.19;;;5.60;84.53
9525;BME280;15940;48.734;9.112;2023-03-25T04:01:45;95960.09;;;5.57;84.88
9525;BME280;15940;48.734;9.112;2023-03-25T04:04:17;95963.38;;;5.46;83.61
9525;BME280;15940;48.734;9.112;2023-03-25T04:06:50;95967.53;;;5.47;84.56
9525;BME280;15940;48.734;9.112;2023-03-25T04:09:26;95964.47;;;5.39;83.97
9525;BME280;15940;48.734;9.112;2023-03-25T04:12:04;95961.25;;;5.50;85.03
9525;BME280;15940;48.734;9.112;2023-03-25T04:14:34;95963.13;;;5.64;84.66
9525;BME280;15940;48.734;9.112;2023-03-25T04:17:03;95962.88;;;5.62;84.65
9525;BME280;15940;48.734;9.112;2023-03-25T04:19:30;95965.56;;;5.62;85.37
9525;BME280;15940;48.734;9.112;2023-03-25T04:21:58;95960.34;;;5.59;84.43
9525;BME280;15940;48.734;9.112;2023-03-25T04:24:26;95962.78;;;5.57;84.91
9525;BME280;15940;48.734;9.112;2023-03-25T04:26:56;95955.06;;;5.64;84.50
9525;BME280;15940;48.734;9.112;2023-03-25T04:29:25;95960.34;;;5.59;83.89
9525;BME280;15940;48.734;9.112;2023-03-25T04:31:52;95953.81;;;5.60;84.57
9525;BME280;15940;48.734;9.112;2023-03-25T04:34:21;95953.97;;;5.56;84.57
9525;BME280;15940;48.734;9.112;2023-03-25T04:36:48;95954.66;;;5.51;83.51
9525;BME280;15940;48.734;9.112;2023-03-25T04:39:16;95961.13;;;5.59;84.98
9525;BME280;15940;48.734;9.112;2023-03-25T04:41:47;95956.50;;;5.60;85.85
9525;BME280;15940;48.734;9.112;2023-03-25T04:44:14;95955.53;;;5.63;84.27
9525;BME280;15940;48.734;9.112;2023-03-25T04:46:43;95965.56;;;5.62;85.36
9525;BME280;15940;48.734;9.112;2023-03-25T04:49:18;95961.31;;;5.56;84.45
9525;BME280;15940;48.734;9.112;2023-03-25T04:51:45;95966.88;;;5.52;84.71
9525;BME280;15940;48.734;9.112;2023-03-25T04:54:14;95959.19;;;5.45;84.17
9525;BME280;15940;48.734;9.112;2023-03-25T04:56:41;95968.38;;;5.38;85.39
9525;BME280;15940;48.734;9.112;2023-03-25T04:59:08;95973.84;;;5.44;85.98
9525;BME280;15940;48.734;9.112;2023-03-25T05:01:36;95968.38;;;5.38;84.73
9525;BME280;15940;48.734;9.112;2023-03-25T05:04:09;95972.63;;;5.45;85.65
9525;BME280;15940;48.734;9.112;2023-03-25T05:06:39;95978.34;;;5.53;84.99
9525;BME280;15940;48.734;9.112;2023-03-25T05:09:09;95969.75;;;5.49;84.47
9525;BME280;15940;48.734;9.112;2023-03-25T05:11:38;95974.84;;;5.47;83.70
9525;BME280;15940;48.734;9.112;2023-03-25T05:14:07;95985.69;;;5.52;83.68
9525;BME280;15940;48.734;9.112;2023-03-25T05:16:34;95982.31;;;5.57;82.52
9525;BME280;15940;48.734;9.112;2023-03-25T05:19:01;95989.47;;;5.60;83.61
9525;BME280;15940;48.734;9.112;2023-03-25T05:21:32;95994.78;;;5.75;84.72
9525;BME280;15940;48.734;9.112;2023-03-25T05:24:01;95991.44;;;5.80;82.59
9525;BME280;15940;48.734;9.112;2023-03-25T05:26:28;95997.72;;;5.92;82.81
9525;BME280;15940;48.734;9.112;2023-03-25T05:29:00;96002.16;;;5.95;81.70
9525;BME280;15940;48.734;9.112;2023-03-25T05:31:27;96008.19;;;5.90;81.32
9525;BME280;15940;48.734;9.112;2023-03-25T05:33:55;96009.84;;;6.02;82.66
9525;BME280;15940;48.734;9.112;2023-03-25T05:36:23;96003.47;;;5.99;81.05
9525;BME280;15940;48.734;9.112;2023-03-25T05:38:52;96002.78;;;6.05;81.99
9525;BME280;15940;48.734;9.112;2023-03-25T05:41:20;95992.59;;;6.09;82.01
9525;BME280;15940;48.734;9.112;2023-03-25T05:43:58;95992.75;;;6.05;81.19
9525;BME280;15940;48.734;9.112;2023-03-25T05:46:26;95991.63;;;6.12;80.66
9525;BME280;15940;48.734;9.112;2023-03-25T05:48:55;95991.63;;;6.12;80.86
9525;BME280;15940;48.734;9.112;2023-03-25T05:51:26;95992.13;;;6.10;81.00
9525;BME280;15940;48.734;9.112;2023-03-25T05:53:55;95985.53;;;6.11;81.08
9525;BME280;15940;48.734;9.112;2023-03-25T05:56:22;95977.78;;;5.98;81.07
9525;BME280;15940;48.734;9.112;2023-03-25T05:58:51;95988.06;;;6.00;82.97
9525;BME280;15940;48.734;9.112;2023-03-25T06:01:20;95984.81;;;5.96;81.56
9525;BME280;15940;48.734;9.112;2023-03-25T06:03:47;95988.88;;;6.06;82.06
9525;BME280;15940;48.734;9.112;2023-03-25T06:06:15;95996.34;;;6.17;81.55
9525;BME280;15940;48.734;9.112;2023-03-25T06:08:45;96010.53;;;6.17;81.00
9525;BME280;15940;48.734;9.112;2023-03-25T06:11:13;95997.00;;;6.12;81.17
9525;BME280;15940;48.734;9.112;2023-03-25T06:13:41;95996.75;;;6.10;81.92
9525;BME280;15940;48.734;9.112;2023-03-25T06:16:15;96002.59;;;6.08;81.48
9525;BME280;15940;48.734;9.112;2023-03-25T06:18:43;96007.13;;;6.17;82.35
9525;BME280;15940;48.734;9.112;2023-03-25T06:21:16;96010.53;;;6.17;81.82
9525;BME280;15940;48.734;9.112;2023-03-25T06:23:44;96015.63;;;6.15;81.32
9525;BME280;15940;48.734;9.112;2023-03-25T06:26:14;96011.28;;;6.18;81.00
9525;BME280;15940;48.734;9.112;2023-03-25T06:28:41;96009.50;;;6.15;81.21
9525;BME280;15940;48.734;9.112;2023-03-25T06:31:12;96012.06;;;6.24;81.03
9525;BME280;15940;48.734;9.112;2023-03-25T06:33:41;96004.44;;;6.17;80.54
9525;BME280;15940;48.734;9.112;2023-03-25T06:36:09;96006.44;;;6.22;80.42
9525;BME280;15940;48.734;9.112;2023-03-25T06:38:37;96006.78;;;6.29;79.62
9525;BME280;15940;48.734;9.112;2023-03-25T06:41:05;96016.78;;;6.49;79.19
9525;BME280;15940;48.734;9.112;2023-03-25T06:43:34;96002.56;;;6.69;79.84
9525;BME280;15940;48.734;9.112;2023-03-25T06:46:01;96009.59;;;6.87;78.64
9525;BME280;15940;48.734;9.112;2023-03-25T06:48:28;96007.75;;;6.99;77.58
9525;BME280;15940;48.734;9.112;2023-03-25T06:50:55;96011.50;;;7.07;77.70
9525;BME280;15940;48.734;9.112;2023-03-25T06:53:22;96013.34;;;7.21;77.46
9525;BME280;15940;48.734;9.112;2023-03-25T06:55:49;96016.38;;;7.34;77.51
9525;BME280;15940;48.734;9.112;2023-03-25T06:58:16;96013.28;;;7.41;76.99
9525;BME280;15940;48.734;9.112;2023-03-25T07:00:44;96015.88;;;7.62;76.58
9525;BME280;15940;48.734;9.112;2023-03-25T07:03:11;96016.44;;;7.71;75.81
9525;BME280;15940;48.734;9.112;2023-03-25T07:05:40;96013.69;;;7.66;76.42
9525;BME280;15940;48.734;9.112;2023-03-25T07:08:08;96017.81;;;7.61;77.24
9525;BME280;15940;48.734;9.112;2023-03-25T07:10:35;96021.25;;;7.62;78.10
9525;BME280;15940;48.734;9.112;2023-03-25T07:13:01;96021.94;;;7.57;77.69
9525;BME280;15940;48.734;9.112;2023-03-25T07:15:28;96022.72;;;7.63;80.41
9525;BME280;15940;48.734;9.112;2023-03-25T07:17:57;96014.69;;;7.68;79.80
9525;BME280;15940;48.734;9.112;2023-03-25T07:20:24;96009.03;;;7.66;79.54
9525;BME280;15940;48.734;9.112;2023-03-25T07:22:52;96014.25;;;7.76;79.20
9525;BME280;15940;48.734;9.112;2023-03-25T07:25:19;96022.25;;;7.64;78.96
9525;BME280;15940;48.734;9.112;2023-03-25T07:27:46;96008.75;;;7.59;76.90
9525;BME280;15940;48.734;9.112;2023-03-25T07:30:14;96012.03;;;7.74;77.12
9525;BME280;15940;48.734;9.112;2023-03-25T07:32:43;96022.31;;;7.76;77.92
9525;BME280;15940;48.734;9.112;2023-03-25T07:35:11;96017.94;;;7.78;78.62
9525;BME280;15940;48.734;9.112;2023-03-25T07:37:38;96018.03;;;7.58;77.75
9525;BME280;15940;48.734;9.112;2023-03-25T07:40:07;96026.19;;;7.37;77.65
9525;BME280;15940;48.734;9.112;2023-03-25T07:42:35;96019.97;;;7.20;79.06
9525;BME280;15940;48.734;9.112;2023-03-25T07:45:04;96024.31;;;7.18;78.98
9525;BME280;15940;48.734;9.112;2023-03-25T07:47:31;96034.63;;;7.19;79.46
9525;BME280;15940;48.734;9.112;2023-03-25T07:49:58;96026.75;;;7.41;79.42
9525;BME280;15940;48.734;9.112;2023-03-25T07:52:26;96017.75;;;7.87;75.78
9525;BME280;15940;48.734;9.112;2023-03-25T07:54:53;96018.09;;;8.49;72.59
9525;BME280;15940;48.734;9.112;2023-03-25T07:57:20;96031.41;;;8.64;71.24
9525;BME280;15940;48.734;9.112;2023-03-25T07:59:47;96019.91;;;8.80;72.62
9525;BME280;15940;48.734;9.112;2023-03-25T08:02:14;96020.38;;;8.73;70.81
9525;BME280;15940;48.734;9.112;2023-03-25T08:04:41;96019.19;;;8.31;71.21
9525;BME280;15940;48.734;9.112;2023-03-25T08:07:08;96019.56;;;8.01;74.62
9525;BME280;15940;48.734;9.112;2023-03-25T08:09:37;96012.19;;;7.96;74.86
9525;BME280;15940;48.734;9.112;2023-03-25T08:12:05;96016.72;;;8.22;74.78
9525;BME280;15940;48.734;9.112;2023-03-25T08:14:33;96022.03;;;8.59;72.49
9525;BME280;15940;48.734;9.112;2023-03-25T08:17:00;96018.91;;;8.77;71.89
9525;BME280;15940;48.734;9.112;2023-03-25T08:19:27;96025.81;;;8.84;72.69
9525;BME280;15940;48.734;9.112;2023-03-25T08:21:54;96022.06;;;8.70;71.41
9525;BME280;15940;48.734;9.112;2023-03-25T08:24:21;96020.72;;;9.14;72.41
9525;BME280;15940;48.734;9.112;2023-03-25T08:26:50;96037.44;;;9.29;71.25
9525;BME280;15940;48.734;9.112;2023-03-25T08:29:18;96035.16;;;9.00;69.92
9525;BME280;15940;48.734;9.112;2023-03-25T08:31:45;96051.59;;;8.91;72.93
9525;BME280;15940;48.734;9.112;2023-03-25T08:34:18;96039.53;;;8.75;72.37
9525;BME280;15940;48.734;9.112;2023-03-25T08:36:45;96045.53;;;8.42;74.70
9525;BME280;15940;48.734;9.112;2023-03-25T08:39:12;96053.63;;;8.05;76.04
9525;BME280;15940;48.734;9.112;2023-03-25T08:41:42;96059.72;;;7.62;76.98
9525;BME280;15940;48.734;9.112;2023-03-25T08:44:11;96050.75;;;7.13;80.59
9525;BME280;15940;48.734;9.112;2023-03-25T08:46:38;96051.97;;;7.12;82.53
9525;BME280;15940;48.734;9.112;2023-03-25T08:49:05;96055.25;;;7.28;82.60
9525;BME280;15940;48.734;9.112;2023-03-25T08:51:32;96051.59;;;7.57;82.92
9525;BME280;15940;48.734;9.112;2023-03-25T08:53:59;96048.03;;;7.71;81.84
9525;BME280;15940;48.734;9.112;2023-03-25T08:56:26;96054.22;;;7.77;82.39
9525;BME280;15940;48.734;9.112;2023-03-25T08:58:53;96049.28;;;7.76;83.67
9525;BME280;15940;48.734;9.112;2023-03-25T09:01:21;96056.03;;;7.60;83.52
9525;BME280;15940;48.734;9.112;2023-03-25T09:03:49;96057.03;;;7.62;84.09
9525;BME280;15940;48.734;9.112;2023-03-25T09:06:16;96062.34;;;7.51;84.95
9525;BME280;15940;48.734;9.112;2023-03-25T09:08:43;96058.25;;;7.30;85.80
9525;BME280;15940;48.734;9.112;2023-03-25T09:11:10;96040.53;;;7.23;86.53
9525;BME280;15940;48.734;9.112;2023-03-25T09:13:37;96033.78;;;7.33;86.05
9525;BME280;15940;48.734;9.112;2023-03-25T09:16:06;96026.28;;;7.17;84.67
9525;BME280;15940;48.734;9.112;2023-03-25T09:18:35;96021.69;;;7.23;85.99
9525;BME280;15940;48.734;9.112;2023-03-25T09:21:03;96013.56;;;7.49;86.19
9525;BME280;15940;48.734;9.112;2023-03-25T09:23:29;96026.84;;;7.95;86.35
9525;BME280;15940;48.734;9.112;2023-03-25T09:25:59;96034.84;;;8.16;85.01
9525;BME280;15940;48.734;9.112;2023-03-25T09:28:27;96027.38;;;7.99;84.56
9525;BME280;15940;48.734;9.112;2023-03-25T09:30:54;96030.47;;;7.81;83.93
9525;BME280;15940;48.734;9.112;2023-03-25T09:33:22;96013.66;;;7.97;84.91
9525;BME280;15940;48.734;9.112;2023-03-25T09:35:50;96016.38;;;8.46;86.28
9525;BME280;15940;48.734;9.112;2023-03-25T09:38:17;96017.00;;;9.06;84.27
9525;BME280;15940;48.734;9.112;2023-03-25T09:40:45;96015.22;;;8.75;81.07
9525;BME280;15940;48.734;9.112;2023-03-25T09:43:29;96017.94;;;8.75;84.24
9525;BME280;15940;48.734;9.112;2023-03-25T09:45:59;96007.13;;;8.80;83.33
9525;BME280;15940;48.734;9.112;2023-03-25T09:48:30;96008.41;;;9.07;82.80
9525;BME280;15940;48.734;9.112;2023-03-25T09:51:04;96005.50;;;9.67;81.08
9525;BME280;15940;48.734;9.112;2023-03-25T09:53:36;95998.84;;;9.68;79.10
9525;BME280;15940;48.734;9.112;2023-03-25T09:56:13;95998.31;;;9.97;78.91
9525;BME280;15940;48.734;9.112;2023-03-25T09:58:44;95992.41;;;10.05;78.18
9525;BME280;15940;48.734;9.112;2023-03-25T10:01:29;95999.34;;;10.58;78.76
9525;BME280;15940;48.734;9.112;2023-03-25T10:04:23;96008.31;;;10.36;75.31
9525;BME280;15940;48.734;9.112;2023-03-25T10:07:05;96017.72;;;10.07;75.92
9525;BME280;15940;48.734;9.112;2023-03-25T10:09:46;96005.88;;;10.27;78.84
9525;BME280;15940;48.734;9.112;2023-03-25T10:12:32;96006.75;;;10.57;77.57
9525;BME280;15940;48.734;9.112;2023-03-25T10:15:13;96001.97;;;10.80;75.81
9525;BME280;15940;48.734;9.112;2023-03-25T10:17:56;96000.13;;;11.00;74.50
9525;BME280;15940;48.734;9.112;2023-03-25T10:20:40;96010.00;;;11.33;74.26
9525;BME280;15940;48.734;9.112;2023-03-25T10:23:21;96004.94;;;11.18;71.26
9525;BME280;15940;48.734;9.112;2023-03-25T10:25:56;96015.81;;;10.66;71.66
9525;BME280;15940;48.734;9.112;2023-03-25T10:28:29;95994.81;;;10.14;74.04
9525;BME280;15940;48.734;9.112;2023-03-25T10:30:58;96001.25;;;9.99;76.72
9525;BME280;15940;48.734;9.112;2023-03-25T10:33:32;96002.69;;;10.17;74.56
9525;BME280;15940;48.734;9.112;2023-03-25T10:36:02;96000.75;;;10.23;75.41
9525;BME280;15940;48.734;9.112;2023-03-25T10:38:34;95993.53;;;10.90;73.80
9525;BME280;15940;48.734;9.112;2023-03-25T10:41:23;95997.06;;;11.80;72.27
9525;BME280;15940;48.734;9.112;2023-03-25T10:43:51;96006.88;;;12.13;68.32
9525;BME280;15940;48.734;9.112;2023-03-25T10:46:28;96007.59;;;11.89;68.37
9525;BME280;15940;48.734;9.112;2023-03-25T10:48:57;96013.03;;;11.54;70.10
9525;BME280;15940;48.734;9.112;2023-03-25T10:51:28;96006.69;;;11.45;70.40
9525;BME280;15940;48.734;9.112;2023-03-25T10:53:58;96022.03;;;11.02;69.22
9525;BME280;15940;48.734;9.112;2023-03-25T10:56:29;96016.13;;;10.98;69.42
9525;BME280;15940;48.734;9.112;2023-03-25T10:58:58;96000.06;;;10.64;65.41
9525;BME280;15940;48.734;9.112;2023-03-25T11:01:34;96016.53;;;10.72;69.48
9525;BME280;15940;48.734;9.112;2023-03-25T11:04:05;96009.16;;;10.72;66.11
9525;BME280;15940;48.734;9.112;2023-03-25T11:06:36;96010.41;;;10.60;69.10
9525;BME280;15940;48.734;9.112;2023-03-25T11:09:22;96004.34;;;10.95;67.90
9525;BME280;15940;48.734;9.112;2023-03-25T11:11:51;96004.34;;;10.95;65.66
9525;BME280;15940;48.734;9.112;2023-03-25T11:14:22;96006.97;;;10.59;68.34
9525;BME280;15940;48.734;9.112;2023-03-25T11:16:54;96009.78;;;10.90;64.63
9525;BME280;15940;48.734;9.112;2023-03-25T11:19:27;96000.44;;;10.91;66.33
9525;BME280;15940;48.734;9.112;2023-03-25T11:21:59;95998.59;;;11.10;65.17
9525;BME280;15940;48.734;9.112;2023-03-25T11:24:32;95996.63;;;11.05;65.39
9525;BME280;15940;48.734;9.112;2023-03-25T11:27:00;96000.25;;;10.77;66.88
9525;BME280;15940;48.734;9.112;2023-03-25T11:29:29;95988.22;;;10.67;66.70
9525;BME280;15940;48.734;9.112;2023-03-25T11:32:05;95991.50;;;10.54;64.06
9525;BME280;15940;48.734;9.112;2023-03-25T11:34:35;95969.06;;;10.59;65.28
9525;BME280;15940;48.734;9.112;2023-03-25T11:37:15;95964.06;;;10.75;65.93
9525;BME280;15940;48.734;9.112;2023-03-25T11:39:49;95963.06;;;11.13;64.96
9525;BME280;15940;48.734;9.112;2023-03-25T11:42:29;95966.66;;;11.87;62.63
9525;BME280;15940;48.734;9.112;2023-03-25T11:44:59;95960.88;;;11.96;61.88
9525;BME280;15940;48.734;9.112;2023-03-25T11:47:32;95969.53;;;11.95;59.69
9525;BME280;15940;48.734;9.112;2023-03-25T11:50:00;95969.81;;;11.91;59.50
9525;BME280;15940;48.734;9.112;2023-03-25T11:52:36;95972.13;;;11.82;61.25
9525;BME280;15940;48.734;9.112;2023-03-25T11:55:15;95982.38;;;11.94;60.73
9525;BME280;15940;48.734;9.112;2023-03-25T11:57:44;95959.81;;;11.81;60.44
9525;BME280;15940;48.734;9.112;2023-03-25T12:00:26;95972.72;;;11.69;60.78
9525;BME280;15940;48.734;9.112;2023-03-25T12:03:02;95983.16;;;11.89;61.71
9525;BME280;15940;48.734;9.112;2023-03-25T12:05:30;95998.25;;;12.09;60.47
9525;BME280;15940;48.734;9.112;2023-03-25T12:08:10;95979.31;;;11.73;59.77
9525;BME280;15940;48.734;9.112;2023-03-25T12:10:50;95978.06;;;11.80;58.59
9525;BME280;15940;48.734;9.112;2023-03-25T12:13:31;95973.16;;;11.49;59.88
9525;BME280;15940;48.734;9.112;2023-03-25T12:16:15;95971.50;;;11.40;60.26
9525;BME280;15940;48.734;9.112;2023-03-25T12:18:59;95986.00;;;11.42;59.71
9525;BME280;15940;48.734;9.112;2023-03-25T12:21:42;95991.81;;;11.28;61.05
9525;BME280;15940;48.734;9.112;2023-03-25T12:24:31;95988.38;;;11.57;61.75
9525;BME280;15940;48.734;9.112;2023-03-25T12:27:17;95988.78;;;11.67;59.52
9525;BME280;15940;48.734;9.112;2023-03-25T12:29:54;95991.53;;;11.61;60.03
9525;BME280;15940;48.734;9.112;2023-03-25T12:32:34;95997.28;;;11.52;60.32
9525;BME280;15940;48.734;9.112;2023-03-25T12:35:20;95992.50;;;11.94;59.23
9525;BME280;15940;48.734;9.112;2023-03-25T12:38:06;95996.72;;;11.89;60.61
9525;BME280;15940;48.734;9.112;2023-03-25T12:41:06;95996.00;;;11.89;59.44
9525;BME280;15940;48.734;9.112;2023-03-25T12:44:01;96000.53;;;11.45;58.72
9525;BME280;15940;48.734;9.112;2023-03-25T12:46:57;96014.13;;;10.57;67.21
9525;BME280;15940;48.734;9.112;2023-03-25T12:49:45;96008.91;;;9.84;68.82
9525;BME280;15940;48.734;9.112;2023-03-25T12:52:19;96000.03;;;10.00;71.86
9525;BME280;15940;48.734;9.112;2023-03-25T12:55:02;96024.06;;;10.32;70.52
9525;BME280;15940;48.734;9.112;2023-03-25T12:57:50;96006.84;;;10.29;70.10
9525;BME280;15940;48.734;9.112;2023-03-25T13:00:39;96006.91;;;10.76;68.53
9525;BME280;15940;48.734;9.112;2023-03-25T13:03:38;96006.47;;;11.08;66.66
9525;BME280;15940;48.734;9.112;2023-03-25T13:06:19;96005.47;;;11.47;66.42
9525;BME280;15940;48.734;9.112;2023-03-25T13:08:55;96003.84;;;11.62;64.70
9525;BME280;15940;48.734;9.112;2023-03-25T13:11:29;96007.06;;;11.61;63.17
9525;BME280;15940;48.734;9.112;2023-03-25T13:14:03;96024.59;;;11.24;65.43
9525;BME280;15940;48.734;9.112;2023-03-25T13:16:35;96020.00;;;11.08;63.10
9525;BME280;15940;48.734;9.112;2023-03-25T13:19:09;96003.81;;;11.02;65.00
9525;BME280;15940;48.734;9.112;2023-03-25T13:21:42;95999.66;;;10.96;63.03
9525;BME280;15940;48.734;9.112;2023-03-25T13:24:15;96015.59;;;11.05;63.79
9525;BME280;15940;48.734;9.112;2023-03-25T13:26:47;95988.84;;;11.26;61.58
9525;BME280;15940;48.734;9.112;2023-03-25T13:29:24;96000.13;;;11.00;61.90
9525;BME280;15940;48.734;9.112;2023-03-25T13:31:57;95994.44;;;11.03;64.62
9525;BME280;15940;48.734;9.112;2023-03-25T13:34:29;95989.00;;;11.09;63.16
9525;BME280;15940;48.734;9.112;2023-03-25T13:37:07;96003.28;;;11.09;60.52
9525;BME280;15940;48.734;9.112;2023-03-25T13:39:54;95999.59;;;11.37;62.85
9525;BME280;15940;48.734;9.112;2023-03-25T13:42:38;96003.22;;;11.81;61.38
9525;BME280;15940;48.734;9.112;2023-03-25T13:45:16;96019.00;;;12.07;61.05
9525;BME280;15940;48.734;9.112;2023-03-25T13:47:51;96001.13;;;11.92;58.55
9525;BME280;15940;48.734;9.112;2023-03-25T13:50:25;96011.94;;;11.98;59.44